Time;durP1;ratioP1;P1;durP2;ratioP2;P2;SDS_P1;SDS_P2;PMS_P1;PMS_P2;Temp;Humidity;BMP_temperature;BMP_pressure;BME280_temperature;BME280_humidity;BME280_pressure;Samples;Min_cycle;Max_cycle;Signal;HPM_P1;HPM_P2
2022/04/30 00:00:12;;;;;;;12.13;5.78;;;8.20;58.40;;;;;;5032089;28;20390;-66
2022/04/30 00:02:40;;;;;;;12.02;6.63;;;8.10;60.60;;;;;;5042681;28;20029;-66
2022/04/30 00:05:06;;;;;;;7.65;5.22;;;8.10;62.40;;;;;;5029653;28;20033;-67
2022/04/30 00:07:31;;;;;;;7.75;4.18;;;8.10;59.60;;;;;;5042109;28;20045;-67
2022/04/30 00:09:57;;;;;;;10.38;4.20;;;8.00;60.20;;;;;;5044729;28;20095;-67
2022/04/30 00:12:23;;;;;;;6.30;3.65;;;8.00;61.40;;;;;;5034494;28;20407;-66
2022/04/30 00:14:49;;;;;;;6.30;3.25;;;8.00;62.80;;;;;;5033915;28;20455;-66
2022/04/30 00:17:15;;;;;;;4.50;3.17;;;8.00;63.40;;;;;;5042908;28;20021;-66
2022/04/30 00:19:41;;;;;;;4.85;2.95;;;7.90;62.00;;;;;;5025177;28;20044;-67
2022/04/30 00:22:07;;;;;;;6.50;3.33;;;7.90;63.60;;;;;;5042091;28;20515;-66
2022/04/30 00:24:35;;;;;;;4.80;2.95;;;7.80;63.70;;;;;;5024792;28;20146;-66
2022/04/30 00:27:01;;;;;;;5.90;3.08;;;7.80;66.70;;;;;;5040461;28;20033;-66
2022/04/30 00:29:31;;;;;;;5.03;2.60;;;7.80;63.20;;;;;;5034192;28;20471;-66
2022/04/30 00:31:57;;;;;;;6.32;2.80;;;7.70;64.70;;;;;;5026357;28;20501;-66
2022/04/30 00:34:23;;;;;;;5.00;2.95;;;7.60;64.20;;;;;;5041278;28;20052;-66
2022/04/30 00:36:49;;;;;;;5.53;2.65;;;7.60;63.20;;;;;;5043996;28;20029;-67
2022/04/30 00:39:14;;;;;;;5.88;2.78;;;7.50;66.10;;;;;;5043686;28;20061;-66
2022/04/30 00:41:47;;;;;;;5.00;2.28;;;7.50;64.30;;;;;;5020068;28;20405;-67
2022/04/30 00:44:18;;;;;;;7.15;2.80;;;7.40;65.50;;;;;;5043532;28;20089;-66
2022/04/30 00:46:43;;;;;;;3.97;2.28;;;7.40;67.10;;;;;;5028406;28;20524;-66
2022/04/30 00:49:09;;;;;;;5.85;3.20;;;7.30;67.10;;;;;;5034765;28;20040;-66
2022/04/30 00:51:37;;;;;;;7.03;3.38;;;7.30;67.10;;;;;;5047191;28;20031;-69
2022/04/30 00:54:05;;;;;;;5.72;3.30;;;7.20;70.60;;;;;;5034367;28;20076;-66
2022/04/30 00:56:55;;;;;;;4.90;3.28;;;7.20;68.60;;;;;;5047491;28;20086;-67
2022/04/30 00:59:23;;;;;;;7.90;3.17;;;7.10;69.50;;;;;;5011453;28;20037;-67
2022/04/30 01:01:49;;;;;;;9.40;3.58;;;7.00;69.50;;;;;;5047188;28;20215;-67
2022/04/30 01:04:16;;;;;;;7.78;4.25;;;7.00;70.60;;;;;;5045784;28;20242;-67
2022/04/30 01:06:51;;;;;;;11.35;4.20;;;6.90;69.90;;;;;;5028013;28;20033;-67
2022/04/30 01:09:28;;;;;;;5.88;4.22;;;6.90;74.20;;;;;;5008065;28;20169;-67
2022/04/30 01:12:00;;;;;;;8.73;4.35;;;6.80;71.50;;;;;;5006458;28;20478;-67
2022/04/30 01:14:29;;;;;;;7.75;4.07;;;6.80;76.70;;;;;;5045550;28;20029;-67
2022/04/30 01:16:59;;;;;;;8.25;4.00;;;6.80;79.10;;;;;;5026443;28;20030;-67
2022/04/30 01:19:27;;;;;;;7.38;5.05;;;6.70;77.60;;;;;;5047807;28;20029;-68
2022/04/30 01:21:57;;;;;;;8.70;4.07;;;6.70;78.70;;;;;;5026101;28;20094;-66
2022/04/30 01:24:25;;;;;;;6.85;3.58;;;6.70;80.00;;;;;;5047308;28;20078;-67
2022/04/30 01:26:55;;;;;;;8.43;4.38;;;6.70;86.00;;;;;;5027906;28;20131;-67
2022/04/30 01:29:23;;;;;;;8.23;4.03;;;6.70;87.90;;;;;;5027626;28;20026;-67
2022/04/30 01:37:29;;;;;;;10.13;3.72;;;7.00;76.10;;;;;;5015762;28;20094;-68
2022/04/30 01:39:57;;;;;;;5.55;3.40;;;7.10;71.60;;;;;;5047358;28;20024;-67
2022/04/30 01:42:23;;;;;;;7.90;4.15;;;7.10;75.60;;;;;;5029792;28;20025;-67
2022/04/30 01:44:49;;;;;;;5.32;3.05;;;7.00;76.60;;;;;;5029849;28;20029;-67
2022/04/30 01:47:16;;;;;;;6.00;3.03;;;7.00;74.70;;;;;;5044700;28;20090;-67
2022/04/30 01:49:42;;;;;;;3.30;2.30;;;7.10;74.00;;;;;;5046137;28;20029;-67
2022/04/30 01:52:08;;;;;;;5.70;2.55;;;7.10;77.80;;;;;;5028016;28;20041;-66
2022/04/30 01:55:13;;;;;;;5.20;2.95;;;7.10;78.70;;;;;;5033908;28;20041;-67
2022/04/30 01:58:39;;;;;;;5.32;2.40;;;7.00;76.70;;;;;;5037905;28;20048;-67
2022/04/30 02:02:04;;;;;;;5.13;1.85;;;7.10;78.60;;;;;;5040452;28;20808;-67
2022/04/30 02:05:29;;;;;;;3.10;1.80;;;7.10;77.70;;;;;;5032382;28;20037;-67
2022/04/30 02:08:55;;;;;;;5.15;2.03;;;7.20;71.20;;;;;;5021919;28;20041;-67
2022/04/30 02:12:20;;;;;;;3.78;1.23;;;7.20;70.50;;;;;;5038712;28;20036;-67
2022/04/30 02:15:46;;;;;;;4.38;1.45;;;7.10;73.20;;;;;;5025608;28;20103;-67
2022/04/30 02:19:11;;;;;;;3.78;1.25;;;7.00;74.90;;;;;;5042829;28;20021;-67
2022/04/30 02:22:38;;;;;;;2.20;1.48;;;7.10;72.10;;;;;;5036566;28;20600;-67
2022/04/30 02:25:23;;;;;;;2.08;1.40;;;7.00;77.30;;;;;;5023225;28;20044;-67
2022/04/30 02:27:51;;;;;;;2.75;1.60;;;6.90;70.90;;;;;;5047867;28;20056;-67
2022/04/30 02:30:19;;;;;;;6.07;1.75;;;6.90;72.40;;;;;;5025883;28;20017;-67
2022/04/30 02:32:48;;;;;;;2.75;1.40;;;6.90;73.30;;;;;;5047778;28;20033;-67
2022/04/30 02:35:19;;;;;;;3.60;1.42;;;6.80;70.80;;;;;;5025917;28;20139;-67
2022/04/30 02:37:48;;;;;;;5.05;1.77;;;6.70;71.10;;;;;;5047255;28;20060;-67
2022/04/30 02:40:15;;;;;;;6.57;1.33;;;6.70;72.00;;;;;;5026294;28;20112;-67
2022/04/30 02:42:41;;;;;;;2.55;1.38;;;6.70;71.20;;;;;;5047790;28;20051;-67
2022/04/30 02:45:10;;;;;;;2.80;1.30;;;6.60;75.10;;;;;;5026597;28;20037;-67
2022/04/30 02:47:41;;;;;;;2.30;1.35;;;6.60;75.40;;;;;;5047193;28;20029;-67
2022/04/30 02:50:09;;;;;;;3.42;1.90;;;6.50;75.10;;;;;;5026168;28;20401;-67
2022/04/30 02:52:35;;;;;;;4.72;1.75;;;6.50;76.90;;;;;;5047555;28;20013;-67
2022/04/30 02:55:01;;;;;;;3.85;1.17;;;6.50;73.70;;;;;;5026436;28;20069;-67
2022/04/30 02:59:53;;;;;;;2.28;1.40;;;6.50;79.20;;;;;;5046928;28;20033;-67
2022/04/30 03:00:40;;;;;;;3.78;1.40;;;6.40;75.50;;;;;;5023045;28;20032;-67
2022/04/30 03:03:07;;;;;;;4.57;1.65;;;6.40;75.30;;;;;;5046659;28;20563;-67
2022/04/30 03:05:34;;;;;;;2.40;1.52;;;6.40;78.70;;;;;;5026151;28;20039;-67
2022/04/30 03:08:04;;;;;;;2.97;1.60;;;6.40;78.90;;;;;;5047520;28;20022;-67
2022/04/30 03:10:29;;;;;;;6.45;1.50;;;6.40;80.30;;;;;;5017875;28;20061;-60
2022/04/30 03:12:55;;;;;;;7.72;2.15;;;6.30;82.80;;;;;;5043709;28;20045;-60
2022/04/30 03:15:22;;;;;;;4.43;1.83;;;6.30;90.40;;;;;;5036430;28;20053;-60
2022/04/30 03:23:17;;;;;;;4.28;1.73;;;6.40;84.20;;;;;;5029220;28;20507;-60
2022/04/30 03:25:44;;;;;;;5.93;1.65;;;6.40;79.90;;;;;;5027403;28;20033;-60
2022/04/30 03:28:09;;;;;;;3.67;1.58;;;6.30;79.00;;;;;;5045319;28;20480;-60
2022/04/30 03:30:35;;;;;;;2.47;1.52;;;6.30;81.30;;;;;;5027039;28;20091;-61
2022/04/30 03:33:00;;;;;;;2.97;1.52;;;6.30;84.90;;;;;;5044423;28;20025;-60
2022/04/30 03:35:26;;;;;;;3.22;1.70;;;6.20;86.10;;;;;;5027141;28;20045;-65
2022/04/30 03:37:51;;;;;;;3.88;1.63;;;6.20;85.10;;;;;;5044303;28;20037;-66
2022/04/30 03:40:17;;;;;;;5.45;2.13;;;6.10;86.90;;;;;;5027023;28;20104;-65
2022/04/30 03:42:43;;;;;;;4.80;1.42;;;6.10;84.80;;;;;;5044558;28;20488;-65
2022/04/30 03:45:08;;;;;;;2.75;1.50;;;6.00;83.20;;;;;;5037880;28;20021;-65
2022/04/30 03:47:34;;;;;;;7.43;1.70;;;6.00;83.40;;;;;;5044919;28;20029;-65
2022/04/30 03:49:59;;;;;;;4.38;1.60;;;6.00;84.30;;;;;;5039092;28;20044;-65
2022/04/30 03:52:25;;;;;;;2.80;1.50;;;5.90;84.00;;;;;;5044853;28;20025;-65
2022/04/30 03:54:51;;;;;;;6.50;1.67;;;5.90;85.90;;;;;;5040004;28;20164;-65
2022/04/30 03:57:16;;;;;;;4.38;1.92;;;5.90;86.60;;;;;;5043835;28;20611;-65
2022/04/30 04:00:22;;;;;;;3.72;1.80;;;5.90;87.10;;;;;;5034405;28;20044;-65
2022/04/30 04:03:48;;;;;;;2.90;1.60;;;5.90;91.10;;;;;;5043745;28;20094;-65
2022/04/30 04:07:13;;;;;;;4.70;1.83;;;5.90;94.20;;;;;;5043477;28;20044;-65
2022/04/30 04:10:38;;;;;;;2.92;1.70;;;5.90;92.70;;;;;;5030743;28;20052;-65
2022/04/30 04:17:39;;;;;;;2.78;1.40;;;6.00;91.20;;;;;;5044913;28;20048;-64
2022/04/30 04:21:04;;;;;;;3.97;1.50;;;6.00;91.60;;;;;;5037279;28;20045;-64
2022/04/30 04:27:55;;;;;;;3.33;1.40;;;6.00;88.50;;;;;;5042779;28;20051;-64
2022/04/30 04:31:22;;;;;;;6.72;1.90;;;6.10;88.10;;;;;;5029189;28;20029;-65
2022/04/30 04:34:44;;;;;;;3.83;1.50;;;6.10;87.50;;;;;;5043975;28;20147;-65
2022/04/30 04:38:10;;;;;;;3.08;1.50;;;6.20;89.00;;;;;;5036271;28;20021;-64
2022/04/30 04:41:35;;;;;;;6.50;1.58;;;6.20;89.80;;;;;;5039390;28;20041;-65
2022/04/30 04:45:00;;;;;;;4.22;1.58;;;6.30;90.40;;;;;;5036260;28;20098;-64
2022/04/30 04:48:26;;;;;;;4.55;1.67;;;6.40;90.50;;;;;;5044184;28;20033;-65
2022/04/30 04:51:51;;;;;;;4.47;1.70;;;6.40;85.70;;;;;;5041658;28;20041;-64
2022/04/30 04:55:16;;;;;;;2.70;1.50;;;6.50;86.10;;;;;;5031714;28;20327;-65
2022/04/30 04:58:42;;;;;;;3.30;1.30;;;6.60;85.90;;;;;;5042153;28;20124;-65
2022/04/30 05:02:07;;;;;;;3.05;1.60;;;6.70;86.40;;;;;;5022684;28;20033;-65
2022/04/30 05:05:32;;;;;;;5.22;1.80;;;6.80;85.00;;;;;;5038623;28;20456;-65
2022/04/30 05:08:58;;;;;;;4.35;1.60;;;6.90;84.00;;;;;;5037322;28;20099;-64
2022/04/30 05:12:04;;;;;;;2.13;1.25;;;7.00;83.60;;;;;;5037931;28;20309;-65
2022/04/30 05:14:33;;;;;;;2.40;1.45;;;7.20;86.10;;;;;;5014833;28;20129;-65
2022/04/30 05:16:59;;;;;;;5.93;2.20;;;7.40;84.10;;;;;;5048376;28;20033;-65
2022/04/30 05:19:25;;;;;;;4.95;1.80;;;7.50;82.40;;;;;;5046315;28;20033;-65
2022/04/30 05:21:50;;;;;;;3.28;1.48;;;7.70;85.00;;;;;;5048509;28;20496;-63
2022/04/30 05:24:16;;;;;;;1.83;1.63;;;7.90;81.70;;;;;;5045429;28;20565;-63
2022/04/30 05:26:41;;;;;;;7.00;2.15;;;8.10;78.80;;;;;;5048290;28;20071;-63
2022/04/30 05:29:07;;;;;;;3.80;2.08;;;8.30;77.30;;;;;;5045864;28;20029;-63
2022/04/30 05:31:32;;;;;;;2.78;1.77;;;8.50;76.70;;;;;;5048748;28;20033;-63
2022/04/30 05:33:58;;;;;;;5.10;2.30;;;8.70;76.00;;;;;;5045746;28;20063;-64
2022/04/30 05:36:23;;;;;;;3.78;1.75;;;9.00;73.40;;;;;;5029420;28;20036;-64
2022/04/30 05:38:51;;;;;;;4.35;1.85;;;9.20;69.40;;;;;;5047339;28;20033;-64
2022/04/30 05:41:16;;;;;;;3.60;2.33;;;9.50;67.80;;;;;;5030556;28;20033;-64
2022/04/30 05:43:42;;;;;;;5.13;2.65;;;9.80;65.70;;;;;;5047312;28;20033;-64
2022/04/30 05:46:07;;;;;;;7.90;2.20;;;10.00;63.10;;;;;;5027880;28;20030;-64
2022/04/30 05:48:33;;;;;;;5.35;2.30;;;10.30;59.10;;;;;;5029353;28;20048;-65
2022/04/30 05:50:58;;;;;;;5.35;2.42;;;10.60;55.70;;;;;;5031557;28;20139;-64
2022/04/30 05:53:24;;;;;;;5.20;2.58;;;10.80;54.40;;;;;;5049603;28;20727;-64
2022/04/30 05:55:50;;;;;;;3.92;2.33;;;11.00;49.40;;;;;;5036417;28;20059;-64
2022/04/30 05:58:15;;;;;;;5.10;2.55;;;11.30;49.90;;;;;;5029427;28;20366;-64
2022/04/30 06:00:40;;;;;;;4.32;2.58;;;11.50;46.20;;;;;;5033887;28;20029;-64
2022/04/30 06:03:46;;;;;;;4.45;2.25;;;11.60;44.10;;;;;;5038711;28;20335;-64
2022/04/30 06:07:12;;;;;;;3.38;2.38;;;11.70;40.10;;;;;;5043181;28;20126;-64
2022/04/30 06:10:37;;;;;;;5.15;2.70;;;11.90;36.60;;;;;;5029344;28;20034;-64
2022/04/30 06:14:02;;;;;;;5.95;2.55;;;12.00;35.50;;;;;;5035354;28;20041;-64
2022/04/30 06:17:27;;;;;;;7.22;2.38;;;12.20;34.00;;;;;;5034939;28;20068;-64
2022/04/30 06:20:53;;;;;;;4.72;2.67;;;12.40;34.50;;;;;;5024456;28;20051;-63
2022/04/30 06:24:18;;;;;;;3.53;2.35;;;12.70;33.50;;;;;;5037732;28;20412;-64
2022/04/30 06:27:44;;;;;;;4.43;2.50;;;13.00;33.40;;;;;;5034959;28;20043;-67
2022/04/30 06:31:09;;;;;;;4.70;2.38;;;13.30;32.80;;;;;;5028250;28;20609;-66
2022/04/30 06:34:34;;;;;;;5.18;2.72;;;13.50;28.60;;;;;;5041758;28;20142;-63
2022/04/30 06:38:00;;;;;;;5.35;2.42;;;14.10;29.40;;;;;;5033811;28;20503;-64
2022/04/30 06:41:05;;;;;;;8.77;3.08;;;14.20;24.70;;;;;;5021821;28;20033;-64
2022/04/30 06:43:30;;;;;;;4.68;2.80;;;14.20;28.20;;;;;;5024788;28;20025;-65
2022/04/30 06:46:36;;;;;;;5.78;2.78;;;14.40;29.80;;;;;;5028200;28;20175;-64
2022/04/30 06:50:01;;;;;;;5.47;2.42;;;15.00;26.90;;;;;;5038689;28;20116;-64
2022/04/30 07:03:38;;;;;;;5.85;3.15;;;15.60;21.90;;;;;;5031351;28;20628;-60
2022/04/30 07:07:03;;;;;;;5.78;2.55;;;15.20;23.00;;;;;;5026438;28;20037;-59
2022/04/30 07:10:30;;;;;;;4.95;2.85;;;15.40;23.90;;;;;;5040712;28;20419;-54
2022/04/30 07:13:54;;;;;;;4.75;2.38;;;15.60;25.20;;;;;;5033496;28;20044;-52
2022/04/30 07:17:19;;;;;;;5.05;2.33;;;15.70;23.50;;;;;;5036192;28;20529;-55
2022/04/30 07:20:45;;;;;;;4.32;2.78;;;15.80;23.90;;;;;;5038307;28;20192;-52
2022/04/30 07:24:10;;;;;;;10.82;3.47;;;15.70;22.40;;;;;;5043034;28;20045;-55
2022/04/30 07:27:36;;;;;;;4.85;2.78;;;15.70;23.80;;;;;;5043890;28;20044;-54
2022/04/30 07:31:02;;;;;;;4.45;3.05;;;15.70;24.50;;;;;;5035779;28;20452;-52
2022/04/30 07:34:27;;;;;;;6.07;2.72;;;15.50;21.90;;;;;;5041412;28;20049;-52
2022/04/30 07:37:52;;;;;;;5.88;2.45;;;15.50;23.20;;;;;;5007603;28;20033;-55
2022/04/30 07:41:17;;;;;;;5.38;3.05;;;15.40;23.60;;;;;;5022374;28;20044;-51
2022/04/30 07:44:43;;;;;;;3.88;2.13;;;15.50;23.50;;;;;;5042135;28;20076;-55
2022/04/30 07:48:08;;;;;;;6.47;3.13;;;15.60;23.80;;;;;;5033301;28;20159;-53
2022/04/30 07:51:34;;;;;;;4.60;2.90;;;15.70;22.60;;;;;;5030707;28;20065;-52
2022/04/30 07:54:59;;;;;;;5.50;2.95;;;15.80;21.70;;;;;;5042822;28;20561;-54
2022/04/30 07:58:25;;;;;;;6.43;2.92;;;15.60;21.40;;;;;;5045138;28;20047;-53
2022/04/30 08:01:49;;;;;;;4.93;2.58;;;15.80;22.90;;;;;;5022777;28;20401;-55
2022/04/30 08:05:15;;;;;;;6.63;2.63;;;16.40;20.70;;;;;;5040578;28;20032;-55
2022/04/30 08:08:40;;;;;;;4.90;2.78;;;16.90;21.50;;;;;;5019373;28;20037;-53
2022/04/30 08:12:05;;;;;;;4.55;2.78;;;17.80;18.60;;;;;;5029953;28;20526;-53
2022/04/30 08:15:31;;;;;;;5.00;2.85;;;18.30;19.20;;;;;;5048514;28;20044;-52
2022/04/30 08:18:57;;;;;;;4.47;2.45;;;18.20;17.30;;;;;;5036468;28;20029;-56
2022/04/30 08:22:21;;;;;;;8.63;2.78;;;18.50;16.20;;;;;;5010008;28;20056;-51
2022/04/30 08:25:47;;;;;;;3.47;2.35;;;19.10;16.20;;;;;;5030111;28;20175;-53
2022/04/30 08:29:12;;;;;;;6.72;3.20;;;20.50;15.20;;;;;;5027254;28;20083;-51
2022/04/30 08:32:38;;;;;;;3.00;2.22;;;21.60;12.10;;;;;;5039533;28;20067;-54
2022/04/30 08:36:03;;;;;;;5.28;2.50;;;21.90;11.80;;;;;;5031729;28;20046;-54
2022/04/30 08:39:31;;;;;;;4.90;2.78;;;21.70;12.10;;;;;;5037601;28;20029;-55
2022/04/30 08:42:54;;;;;;;5.70;3.05;;;21.40;12.00;;;;;;5046386;28;20778;-52
2022/04/30 08:46:20;;;;;;;13.80;3.13;;;21.20;11.10;;;;;;5032641;28;20033;-55
2022/04/30 08:49:45;;;;;;;4.10;2.15;;;21.00;12.30;;;;;;5043681;28;20526;-51
2022/04/30 08:53:10;;;;;;;4.97;2.85;;;21.10;12.40;;;;;;5036195;28;20025;-55
2022/04/30 08:56:38;;;;;;;4.07;2.63;;;21.60;11.20;;;;;;5029282;28;20660;-54
2022/04/30 09:00:04;;;;;;;5.07;3.08;;;22.80;10.60;;;;;;5038644;28;20037;-56
2022/04/30 09:03:32;;;;;;;8.82;3.45;;;23.30;8.30;;;;;;5033504;28;20033;-55
2022/04/30 09:07:09;;;;;;;7.38;3.40;;;24.10;6.10;;;;;;5029345;28;20112;-55
2022/04/30 09:10:38;;;;;;;6.78;3.65;;;24.20;7.50;;;;;;5016433;28;20037;-55
2022/04/30 09:14:03;;;;;;;9.07;3.60;;;24.30;7.70;;;;;;5037176;28;20076;-55
2022/04/30 09:17:28;;;;;;;13.93;4.20;;;24.90;7.10;;;;;;5038466;28;20040;-54
2022/04/30 09:20:59;;;;;;;5.43;3.47;;;25.40;4.30;;;;;;5039175;28;20038;-52
2022/04/30 09:24:25;;;;;;;4.38;3.30;;;26.50;4.60;;;;;;5041448;28;20033;-52
2022/04/30 09:27:14;;;;;;;6.97;3.13;;;27.90;3.60;;;;;;5042363;28;20037;-57
2022/04/30 09:30:19;;;;;;;9.15;3.45;;;29.20;4.90;;;;;;5029080;28;20056;-56
2022/04/30 09:33:44;;;;;;;7.15;3.50;;;30.40;1.70;;;;;;5038878;28;20123;-56
2022/04/30 09:40:14;;;;;;;4.38;3.25;;;31.00;1.00;;;;;;5015982;28;20043;-60
2022/04/30 09:43:39;;;;;;;6.03;3.00;;;30.10;1.00;;;;;;5037261;28;20043;-61
2022/04/30 09:46:51;;;;;;;5.10;3.90;;;29.00;1.00;;;;;;5043996;28;20064;-61
2022/04/30 09:56:51;;;;;;;5.30;3.63;;;27.00;1.20;;;;;;5025508;28;20072;-60
2022/04/30 10:00:16;;;;;;;7.78;4.07;;;26.80;1.90;;;;;;5035673;28;20032;-59
2022/04/30 10:03:44;;;;;;;6.93;3.83;;;26.70;1.00;;;;;;5029666;28;20504;-60
2022/04/30 10:07:09;;;;;;;8.68;4.40;;;26.60;1.00;;;;;;5043255;28;20037;-60
2022/04/30 10:10:32;;;;;;;4.28;3.88;;;26.50;1.00;;;;;;5028466;28;20034;-60
2022/04/30 10:13:54;;;;;;;5.43;3.90;;;26.10;1.60;;;;;;5037228;28;20041;-59
2022/04/30 10:17:22;;;;;;;6.45;3.90;;;25.80;1.00;;;;;;5037807;28;20402;-59
2022/04/30 10:20:48;;;;;;;4.97;3.60;;;25.40;1.00;;;;;;5033147;28;20084;-60
2022/04/30 10:24:19;;;;;;;6.78;3.92;;;25.00;1.00;;;;;;5043549;28;20071;-59
2022/04/30 10:27:46;;;;;;;7.78;4.28;;;24.80;1.20;;;;;;5045317;28;20124;-60
2022/04/30 10:31:22;;;;;;;5.75;3.20;;;24.60;2.00;;;;;;5026516;28;20095;-60
2022/04/30 10:34:47;;;;;;;4.88;3.17;;;24.40;1.40;;;;;;5042355;28;20135;-60
2022/04/30 10:38:13;;;;;;;5.78;2.92;;;24.00;2.30;;;;;;5042439;28;20546;-60
2022/04/30 10:41:38;;;;;;;5.97;3.55;;;23.80;2.00;;;;;;5046271;28;20201;-60
2022/04/30 10:45:09;;;;;;;5.07;3.28;;;23.60;2.30;;;;;;5039413;28;20044;-60
2022/04/30 10:48:32;;;;;;;4.40;3.30;;;23.40;2.60;;;;;;5008591;28;20038;-60
2022/04/30 10:51:59;;;;;;;5.63;3.00;;;23.40;3.80;;;;;;5026012;28;20044;-60
2022/04/30 10:55:24;;;;;;;4.40;3.20;;;23.50;3.70;;;;;;5028785;28;20743;-60
2022/04/30 10:58:49;;;;;;;8.15;3.65;;;23.50;3.60;;;;;;5044789;28;20033;-60
2022/04/30 11:02:15;;;;;;;7.50;3.15;;;23.40;4.40;;;;;;5039910;28;20037;-60
2022/04/30 11:05:40;;;;;;;5.30;3.35;;;23.40;3.90;;;;;;5034241;28;20048;-60
2022/04/30 11:09:18;;;;;;;6.22;2.90;;;23.30;4.80;;;;;;5042231;28;20044;-62
2022/04/30 11:12:46;;;;;;;3.60;2.90;;;23.30;4.50;;;;;;5047239;28;20037;-59
2022/04/30 11:16:11;;;;;;;4.55;3.13;;;23.20;4.10;;;;;;5025789;28;20049;-59
2022/04/30 11:19:41;;;;;;;5.03;3.35;;;23.00;4.30;;;;;;5034807;28;20075;-59
2022/04/30 11:23:05;;;;;;;3.72;2.60;;;23.00;4.50;;;;;;5008245;28;20030;-59
2022/04/30 11:26:36;;;;;;;4.57;2.67;;;23.20;4.10;;;;;;5028430;28;20512;-59
2022/04/30 11:30:08;;;;;;;4.22;2.78;;;23.50;3.20;;;;;;5015308;28;20049;-58
2022/04/30 11:33:33;;;;;;;5.82;3.15;;;23.80;3.00;;;;;;5029362;28;20037;-59
2022/04/30 11:37:02;;;;;;;4.28;2.55;;;24.00;1.40;;;;;;5028312;28;20041;-59
2022/04/30 11:40:27;;;;;;;3.60;2.75;;;24.00;1.20;;;;;;5029311;28;20045;-59
2022/04/30 11:43:52;;;;;;;6.88;3.47;;;24.00;1.60;;;;;;5036160;28;20048;-58
2022/04/30 11:47:21;;;;;;;5.85;2.85;;;23.60;1.00;;;;;;5036490;28;20042;-59
2022/04/30 11:50:48;;;;;;;11.85;3.70;;;22.60;1.00;;;;;;5008355;28;20037;-59
2022/04/30 11:54:12;;;;;;;3.83;2.75;;;22.10;2.20;;;;;;5024304;28;20094;-59
2022/04/30 11:57:37;;;;;;;4.32;2.88;;;22.30;3.30;;;;;;5025854;28;20044;-59
2022/04/30 12:01:02;;;;;;;4.07;2.78;;;22.80;2.30;;;;;;5028919;28;20088;-59
2022/04/30 12:04:43;;;;;;;5.32;2.42;;;23.00;2.00;;;;;;5029093;28;20036;-59
2022/04/30 12:08:08;;;;;;;3.22;2.20;;;23.20;2.30;;;;;;5030543;28;20037;-59
2022/04/30 12:11:37;;;;;;;5.32;2.40;;;23.40;1.80;;;;;;5030450;28;20037;-58
2022/04/30 12:14:22;;;;;;;3.63;2.38;;;23.40;1.80;;;;;;5034094;28;20428;-58
2022/04/30 12:16:49;;;;;;;7.90;3.58;;;23.40;1.90;;;;;;5019426;28;20032;-59
2022/04/30 12:26:23;;;;;;;4.47;2.55;;;22.70;1.80;;;;;;5009205;28;20044;-59
2022/04/30 12:29:57;;;;;;;3.42;2.22;;;22.70;1.80;;;;;;5007839;28;20670;-59
2022/04/30 12:33:35;;;;;;;4.55;2.75;;;22.80;3.00;;;;;;5036026;28;20033;-59
2022/04/30 12:37:00;;;;;;;3.45;2.38;;;22.90;2.40;;;;;;5011734;28;20045;-59
2022/04/30 12:40:26;;;;;;;3.83;2.05;;;22.90;2.50;;;;;;5043115;28;20044;-59
2022/04/30 12:43:52;;;;;;;4.93;2.85;;;23.10;1.90;;;;;;5039835;28;20453;-58
2022/04/30 12:47:17;;;;;;;5.45;3.15;;;22.80;1.80;;;;;;5024168;28;20033;-59
2022/04/30 12:50:42;;;;;;;7.78;3.25;;;22.50;2.20;;;;;;5039679;28;20519;-59
2022/04/30 12:54:09;;;;;;;5.60;2.55;;;22.00;2.60;;;;;;5039599;28;20041;-59
2022/04/30 12:57:33;;;;;;;3.75;2.22;;;21.80;2.80;;;;;;5022921;28;20041;-59
2022/04/30 13:00:58;;;;;;;3.17;2.35;;;21.80;2.90;;;;;;5031434;28;20049;-59
2022/04/30 13:04:24;;;;;;;5.90;3.03;;;21.90;3.00;;;;;;5049445;28;20041;-59
2022/04/30 13:07:49;;;;;;;5.20;2.67;;;21.80;3.40;;;;;;5025292;28;20038;-59
2022/04/30 13:14:38;;;;;;;4.22;2.97;;;22.30;3.00;;;;;;5010749;28;20123;-59
2022/04/30 13:18:03;;;;;;;4.43;2.60;;;22.40;2.60;;;;;;5043852;28;20044;-59
2022/04/30 13:21:29;;;;;;;4.65;2.40;;;22.40;3.30;;;;;;5035401;28;20827;-60
2022/04/30 13:24:54;;;;;;;6.68;2.80;;;22.50;3.20;;;;;;5044137;28;20028;-59
2022/04/30 13:28:20;;;;;;;5.20;3.10;;;22.30;3.80;;;;;;5038746;28;20500;-59
2022/04/30 13:31:45;;;;;;;4.65;3.20;;;21.80;4.40;;;;;;5027351;28;20084;-59
2022/04/30 13:35:10;;;;;;;5.07;3.00;;;21.20;4.60;;;;;;5044191;28;20064;-59
2022/04/30 13:38:38;;;;;;;4.80;2.97;;;21.30;4.10;;;;;;5010305;28;20042;-59
2022/04/30 13:42:01;;;;;;;12.50;3.17;;;21.20;3.90;;;;;;5017584;28;20045;-59
2022/04/30 13:45:26;;;;;;;6.68;2.85;;;21.20;3.90;;;;;;5038279;28;20037;-59
2022/04/30 13:48:52;;;;;;;3.10;2.47;;;21.30;4.30;;;;;;5039408;28;20044;-59
2022/04/30 13:52:18;;;;;;;6.10;2.85;;;21.60;4.00;;;;;;5028192;28;20029;-59
2022/04/30 13:55:43;;;;;;;3.88;2.33;;;21.60;3.50;;;;;;5037900;28;20055;-59
2022/04/30 13:59:10;;;;;;;2.53;2.08;;;21.60;4.00;;;;;;5041169;28;20417;-59
2022/04/30 14:02:33;;;;;;;3.22;2.30;;;21.70;4.00;;;;;;5015376;28;20083;-59
2022/04/30 14:06:00;;;;;;;4.18;2.78;;;21.40;4.00;;;;;;5038740;28;20037;-59
2022/04/30 14:09:24;;;;;;;7.68;3.03;;;21.10;4.40;;;;;;5039548;28;20037;-59
2022/04/30 14:12:10;;;;;;;2.85;1.98;;;20.90;4.40;;;;;;5025821;28;20072;-59
2022/04/30 14:20:05;;;;;;;3.35;2.20;;;20.30;4.90;;;;;;5038838;28;20032;-60
2022/04/30 14:22:33;;;;;;;3.53;2.38;;;20.30;5.10;;;;;;5031614;28;20496;-59
2022/04/30 14:25:38;;;;;;;4.18;2.10;;;20.40;5.20;;;;;;5049111;28;20029;-60
2022/04/30 14:29:05;;;;;;;4.82;2.70;;;20.40;5.60;;;;;;5035362;28;20036;-59
2022/04/30 14:32:29;;;;;;;4.22;2.65;;;20.10;5.40;;;;;;5026838;28;20045;-59
2022/04/30 14:35:56;;;;;;;7.03;2.83;;;19.80;5.80;;;;;;5044405;28;20052;-59
2022/04/30 14:39:20;;;;;;;4.65;2.67;;;19.60;6.30;;;;;;5035385;28;20029;-59
2022/04/30 14:42:45;;;;;;;6.75;2.53;;;19.40;6.20;;;;;;5026079;28;20065;-59
2022/04/30 14:46:11;;;;;;;3.17;2.33;;;19.30;6.60;;;;;;5027788;28;20038;-59
2022/04/30 14:49:36;;;;;;;4.38;2.00;;;19.20;5.80;;;;;;5042852;28;20063;-59
2022/04/30 14:53:01;;;;;;;4.18;2.45;;;19.10;6.00;;;;;;5028110;28;20041;-59
2022/04/30 14:56:27;;;;;;;4.00;2.47;;;19.10;5.90;;;;;;5013383;28;20497;-60
2022/04/30 14:59:52;;;;;;;2.08;1.55;;;19.00;6.50;;;;;;5042989;28;20125;-59
2022/04/30 15:03:17;;;;;;;2.47;1.77;;;19.00;6.30;;;;;;5042345;28;20035;-59
2022/04/30 15:06:03;;;;;;;5.30;2.42;;;19.00;6.70;;;;;;5031311;28;20087;-59
2022/04/30 15:08:28;;;;;;;2.78;1.80;;;18.90;6.50;;;;;;5047338;28;20503;-59
2022/04/30 15:10:55;;;;;;;3.67;2.28;;;18.90;6.80;;;;;;5034934;28;20024;-59
2022/04/30 15:14:00;;;;;;;5.07;2.28;;;18.80;7.10;;;;;;5047303;28;20086;-59
2022/04/30 15:17:26;;;;;;;2.80;1.77;;;18.60;7.70;;;;;;5032764;28;20056;-60
2022/04/30 15:20:51;;;;;;;2.88;1.88;;;18.50;7.60;;;;;;5033335;28;20033;-59
2022/04/30 15:24:18;;;;;;;3.08;1.92;;;18.40;8.60;;;;;;5036724;28;20416;-59
2022/04/30 15:27:42;;;;;;;5.05;1.98;;;18.30;8.10;;;;;;5026145;28;20042;-59
2022/04/30 15:31:07;;;;;;;2.28;1.95;;;18.30;8.40;;;;;;5030654;28;20037;-60
2022/04/30 15:34:34;;;;;;;7.30;2.83;;;18.30;8.40;;;;;;5043903;28;20156;-59
2022/04/30 15:37:03;;;;;;;3.55;2.08;;;18.40;8.10;;;;;;5030025;28;20053;-62
2022/04/30 15:39:29;;;;;;;3.70;2.00;;;18.50;7.90;;;;;;5044931;28;20113;-62
2022/04/30 15:41:55;;;;;;;4.25;2.40;;;18.60;7.90;;;;;;5031478;28;20114;-62
2022/04/30 15:44:21;;;;;;;1.92;1.65;;;18.60;8.00;;;;;;5026975;28;20554;-62
2022/04/30 15:52:15;;;;;;;3.90;2.13;;;18.80;7.90;;;;;;5028417;28;20084;-64
2022/04/30 15:54:41;;;;;;;4.15;2.13;;;18.80;7.60;;;;;;5044657;28;20040;-64
2022/04/30 15:57:08;;;;;;;5.95;2.90;;;18.70;7.60;;;;;;5029649;28;20065;-65
2022/04/30 15:59:33;;;;;;;3.65;2.10;;;18.60;7.40;;;;;;5037887;28;20051;-64
2022/04/30 16:02:39;;;;;;;3.45;2.17;;;18.60;7.50;;;;;;5030504;28;20501;-65
2022/04/30 16:06:04;;;;;;;6.22;2.20;;;18.50;7.50;;;;;;5038033;28;20647;-65
2022/04/30 16:09:30;;;;;;;4.90;1.98;;;18.30;7.30;;;;;;5036552;28;20029;-65
2022/04/30 16:12:16;;;;;;;2.72;1.60;;;18.20;8.20;;;;;;5040561;28;20636;-65
2022/04/30 16:14:42;;;;;;;4.32;1.98;;;18.10;8.10;;;;;;5047272;28;20045;-65
2022/04/30 16:17:07;;;;;;;3.38;1.83;;;18.10;8.00;;;;;;5030336;28;20032;-65
2022/04/30 16:19:34;;;;;;;4.45;1.50;;;17.90;7.70;;;;;;5051509;28;20090;-65
2022/04/30 16:22:00;;;;;;;2.95;1.95;;;17.90;7.80;;;;;;5029467;28;20018;-64
2022/04/30 16:24:26;;;;;;;2.45;1.45;;;17.80;7.70;;;;;;5051250;28;20108;-65
2022/04/30 16:26:52;;;;;;;3.28;1.70;;;17.70;7.70;;;;;;5029393;28;20026;-65
2022/04/30 16:29:19;;;;;;;1.90;1.60;;;17.70;7.90;;;;;;5049106;28;20037;-64
2022/04/30 16:31:45;;;;;;;5.22;1.63;;;17.60;7.90;;;;;;5030404;28;20075;-65
2022/04/30 16:34:11;;;;;;;2.42;1.63;;;17.60;8.00;;;;;;5048661;28;20462;-65
2022/04/30 16:36:38;;;;;;;2.67;1.85;;;17.60;8.10;;;;;;5036989;28;20044;-65
2022/04/30 16:39:04;;;;;;;3.33;1.23;;;17.50;8.00;;;;;;5048576;28;20120;-65
2022/04/30 16:41:31;;;;;;;2.83;1.60;;;17.50;8.00;;;;;;5038076;28;20120;-65
2022/04/30 16:43:57;;;;;;;5.43;2.90;;;17.40;8.00;;;;;;5048533;28;20037;-64
2022/04/30 16:46:22;;;;;;;3.45;2.10;;;17.40;8.00;;;;;;5038750;28;20033;-64
2022/04/30 16:48:48;;;;;;;3.60;2.03;;;17.40;8.00;;;;;;5030375;28;20025;-65